Time,TemperatureF,DewpointF,PressureIn,WindDirection,WindDirectionDegrees,WindSpeedMPH,WindSpeedGustMPH,Humidity,HourlyPrecipIn,Conditions,Clouds,dailyrainin,SoftwareType,DateUTC
2013-05-13 00:02:00,55.0,51.0,30.07,SW,226,0.0,0.0,86,0.00,,,0.01,,2013-05-13 05:02:00,
2013-05-13 00:12:00,55.0,51.0,30.07,SW,226,0.0,0.0,86,0.00,,,0.01,,2013-05-13 05:12:00,
2013-05-13 00:22:00,54.0,50.0,30.06,SW,225,0.0,0.0,87,0.00,,,0.01,,2013-05-13 05:22:00,
2013-05-13 00:32:00,53.0,50.0,30.07,SW,225,0.0,0.0,88,0.00,,,0.01,,2013-05-13 05:32:00,
2013-05-13 00:42:00,53.0,50.0,30.07,SW,225,0.0,0.0,88,0.00,,,0.01,,2013-05-13 05:42:00,
2013-05-13 00:52:00,52.0,49.0,30.07,SW,225,0.0,0.0,89,0.00,,,0.01,,2013-05-13 05:52:00,
2013-05-13 01:01:00,52.0,49.0,30.06,SW,225,0.0,0.0,90,0.00,,,0.01,,2013-05-13 06:01:00,
2013-05-13 01:11:00,52.0,49.0,30.06,SW,225,0.0,0.0,90,0.00,,,0.01,,2013-05-13 06:11:00,
2013-05-13 01:21:00,52.0,49.0,30.07,SW,225,0.0,0.0,89,0.00,,,0.01,,2013-05-13 06:21:00,
2013-05-13 01:32:00,51.0,48.0,30.08,SW,225,0.0,0.0,90,0.00,,,0.01,,2013-05-13 06:32:00,
2013-05-13 01:42:00,51.0,48.0,30.08,SW,225,0.0,0.0,90,0.00,,,0.01,,2013-05-13 06:42:00,
2013-05-13 01:52:00,51.0,48.0,30.08,SW,225,0.0,0.0,89,0.00,,,0.01,,2013-05-13 06:52:00,
2013-05-13 02:01:00,51.0,48.0,30.09,SW,225,0.0,0.0,90,0.00,,,0.01,,2013-05-13 07:01:00,
2013-05-13 02:11:00,51.0,48.0,30.09,SW,225,0.0,0.0,90,0.00,,,0.01,,2013-05-13 07:11:00,
2013-05-13 02:22:00,51.0,48.0,30.08,SW,225,0.0,0.0,88,0.00,,,0.01,,2013-05-13 07:22:00,
2013-05-13 02:32:00,50.0,47.0,30.08,SW,226,0.0,0.0,89,0.00,,,0.01,,2013-05-13 07:32:00,
2013-05-13 02:42:00,50.0,47.0,30.08,SW,226,0.0,0.0,89,0.00,,,0.01,,2013-05-13 07:42:00,
2013-05-13 02:52:00,50.0,46.0,30.09,SSW,212,0.0,0.0,87,0.00,,,0.01,,2013-05-13 07:52:00,
2013-05-13 03:02:00,51.0,47.0,30.09,ENE,74,0.0,1.0,85,0.00,,,0.01,,2013-05-13 08:02:00,
2013-05-13 03:11:00,51.0,47.0,30.09,ENE,74,0.0,1.0,85,0.00,,,0.01,,2013-05-13 08:11:00,
2013-05-13 03:21:00,51.0,46.0,30.09,SW,221,0.0,1.0,83,0.00,,,0.01,,2013-05-13 08:21:00,
2013-05-13 03:32:00,50.0,46.0,30.09,SW,221,0.0,0.0,85,0.00,,,0.01,,2013-05-13 08:32:00,
2013-05-13 03:42:00,50.0,46.0,30.09,SW,221,0.0,0.0,85,0.00,,,0.01,,2013-05-13 08:42:00,
2013-05-13 03:52:00,50.0,46.0,30.10,SW,232,0.0,1.0,86,0.00,,,0.01,,2013-05-13 08:52:00,
2013-05-13 04:01:00,50.0,45.0,30.10,SW,221,0.0,1.0,84,0.00,,,0.01,,2013-05-13 09:01:00,
2013-05-13 04:11:00,50.0,45.0,30.10,SW,221,0.0,1.0,84,0.00,,,0.01,,2013-05-13 09:11:00,
2013-05-13 04:21:00,50.0,45.0,30.10,ENE,77,0.0,1.0,84,0.00,,,0.01,,2013-05-13 09:21:00,
2013-05-13 04:33:00,49.0,44.0,30.10,ENE,65,0.0,0.0,84,0.00,,,0.01,,2013-05-13 09:33:00,
2013-05-13 04:42:00,49.0,44.0,30.10,ENE,65,0.0,0.0,84,0.00,,,0.01,,2013-05-13 09:42:00,
2013-05-13 04:52:00,49.0,44.0,30.11,East,100,0.0,0.0,83,0.00,,,0.01,,2013-05-13 09:52:00,
2013-05-13 05:03:00,47.0,43.0,30.11,East,101,0.0,0.0,85,0.00,,,0.01,,2013-05-13 10:03:00,
2013-05-13 05:12:00,47.0,43.0,30.11,East,101,0.0,0.0,85,0.00,,,0.01,,2013-05-13 10:12:00,
2013-05-13 05:22:00,47.0,43.0,30.11,East,100,0.0,0.0,87,0.00,,,0.01,,2013-05-13 10:22:00,
2013-05-13 05:33:00,47.0,44.0,30.12,East,101,0.0,0.0,88,0.00,,,0.01,,2013-05-13 10:33:00,
2013-05-13 05:42:00,47.0,44.0,30.12,East,101,0.0,0.0,88,0.00,,,0.01,,2013-05-13 10:42:00,
2013-05-13 05:52:00,46.0,43.0,30.13,WSW,239,0.0,0.0,89,0.00,,,0.01,,2013-05-13 10:52:00,
2013-05-13 06:02:00,46.0,43.0,30.14,WSW,239,0.0,0.0,90,0.00,,,0.01,,2013-05-13 11:02:00,
2013-05-13 06:12:00,46.0,43.0,30.14,WSW,239,0.0,0.0,90,0.00,,,0.01,,2013-05-13 11:12:00,
2013-05-13 06:22:00,46.0,43.0,30.15,WSW,239,0.0,0.0,90,0.00,,,0.01,,2013-05-13 11:22:00,
2013-05-13 06:32:00,45.0,43.0,30.16,WSW,239,0.0,0.0,91,0.00,,,0.01,,2013-05-13 11:32:00,
2013-05-13 06:42:00,45.0,43.0,30.16,WSW,239,0.0,0.0,91,0.00,,,0.01,,2013-05-13 11:42:00,
2013-05-13 06:52:00,48.0,45.0,30.16,ESE,120,0.0,1.0,90,0.00,,,0.01,,2013-05-13 11:52:00,
2013-05-13 07:01:00,52.0,46.0,30.17,ESE,117,0.0,1.0,81,0.00,,,0.01,,2013-05-13 12:01:00,
2013-05-13 07:12:00,52.0,46.0,30.17,ESE,117,0.0,1.0,81,0.00,,,0.01,,2013-05-13 12:12:00,
2013-05-13 07:21:00,54.0,47.0,30.17,NE,56,0.0,1.0,76,0.00,,,0.00,,2013-05-13 12:21:00,
2013-05-13 07:32:00,55.0,45.0,30.19,East,101,0.0,3.0,68,0.00,,,0.00,,2013-05-13 12:32:00,
2013-05-13 07:42:00,55.0,45.0,30.19,East,101,0.0,3.0,68,0.00,,,0.00,,2013-05-13 12:42:00,
2013-05-13 07:52:00,57.0,47.0,30.19,NNE,26,0.0,2.0,69,0.00,,,0.00,,2013-05-13 12:52:00,
2013-05-13 08:01:00,58.0,45.0,30.20,East,82,1.0,4.0,62,0.00,,,0.00,,2013-05-13 13:01:00,
2013-05-13 08:11:00,58.0,45.0,30.20,East,82,1.0,4.0,62,0.00,,,0.00,,2013-05-13 13:11:00,
2013-05-13 08:21:00,59.0,46.0,30.21,East,84,0.0,4.0,61,0.00,,,0.00,,2013-05-13 13:21:00,
2013-05-13 08:32:00,60.0,46.0,30.21,East,83,1.0,6.0,59,0.00,,,0.00,,2013-05-13 13:32:00,
2013-05-13 08:42:00,60.0,46.0,30.21,East,83,1.0,6.0,59,0.00,,,0.00,,2013-05-13 13:42:00,
2013-05-13 08:52:00,61.0,46.0,30.21,NNW,329,1.0,5.0,57,0.00,,,0.00,,2013-05-13 13:52:00,
2013-05-13 09:02:00,62.0,45.0,30.21,ENE,75,1.0,3.0,54,0.00,,,0.00,,2013-05-13 14:02:00,
2013-05-13 09:11:00,62.0,45.0,30.21,ENE,75,1.0,3.0,54,0.00,,,0.00,,2013-05-13 14:11:00,
2013-05-13 09:22:00,63.0,44.0,30.22,East,79,2.0,8.0,49,0.00,,,0.00,,2013-05-13 14:22:00,
2013-05-13 09:32:00,64.0,44.0,30.22,East,85,2.0,6.0,48,0.00,,,0.00,,2013-05-13 14:32:00,
2013-05-13 09:41:00,64.0,44.0,30.22,East,85,2.0,6.0,48,0.00,,,0.00,,2013-05-13 14:41:00,
2013-05-13 09:52:00,64.0,43.0,30.22,ENE,68,2.0,6.0,47,0.00,,,0.00,,2013-05-13 14:52:00,
2013-05-13 10:01:00,65.0,44.0,30.22,ESE,105,1.0,6.0,47,0.00,,,0.00,,2013-05-13 15:01:00,
2013-05-13 10:11:00,65.0,44.0,30.22,ESE,105,1.0,6.0,47,0.00,,,0.00,,2013-05-13 15:11:00,
2013-05-13 10:21:00,66.0,43.0,30.22,SSE,167,2.0,9.0,43,0.00,,,0.00,,2013-05-13 15:21:00,
2013-05-13 10:32:00,66.0,43.0,30.22,NE,46,2.0,7.0,43,0.00,,,0.00,,2013-05-13 15:32:00,
2013-05-13 10:42:00,66.0,43.0,30.22,NE,46,2.0,7.0,43,0.00,,,0.00,,2013-05-13 15:42:00,
2013-05-13 10:53:00,67.0,43.0,30.22,SW,228,0.0,5.0,42,0.00,,,0.00,,2013-05-13 15:53:00,
2013-05-13 11:03:00,68.0,41.0,30.22,ESE,117,1.0,8.0,38,0.00,,,0.00,,2013-05-13 16:03:00,
2013-05-13 11:12:00,68.0,41.0,30.22,ESE,117,1.0,8.0,38,0.00,,,0.00,,2013-05-13 16:12:00,
2013-05-13 11:21:00,68.0,39.0,30.22,ENE,58,3.0,11.0,35,0.00,,,0.00,,2013-05-13 16:21:00,
2013-05-13 11:33:00,68.0,43.0,30.22,East,91,1.0,10.0,40,0.00,,,0.00,,2013-05-13 16:33:00,
2013-05-13 11:42:00,69.0,42.0,30.22,ESE,102,1.0,5.0,37,0.00,,,0.00,,2013-05-13 16:42:00,
2013-05-13 11:53:00,69.0,42.0,30.22,ESE,102,1.0,5.0,37,0.00,,,0.00,,2013-05-13 16:53:00,
2013-05-13 12:02:00,70.0,40.0,30.22,ENE,72,2.0,6.0,33,0.00,,,0.00,,2013-05-13 17:02:00,
2013-05-13 12:12:00,70.0,40.0,30.22,ENE,72,2.0,6.0,33,0.00,,,0.00,,2013-05-13 17:12:00,
2013-05-13 12:21:00,70.0,40.0,30.21,NE,56,3.0,7.0,34,0.00,,,0.00,,2013-05-13 17:21:00,
2013-05-13 12:32:00,71.0,39.0,30.21,SW,224,2.0,5.0,31,0.00,,,0.00,,2013-05-13 17:32:00,
2013-05-13 12:42:00,71.0,39.0,30.21,SW,224,2.0,5.0,31,0.00,,,0.00,,2013-05-13 17:42:00,
2013-05-13 12:54:00,71.0,38.0,30.20,ESE,108,1.0,7.0,30,0.00,,,0.00,,2013-05-13 17:54:00,
2013-05-13 13:03:00,71.0,37.0,30.20,ESE,113,2.0,7.0,29,0.00,,,0.00,,2013-05-13 18:03:00,
2013-05-13 13:13:00,71.0,37.0,30.20,ESE,113,2.0,7.0,29,0.00,,,0.00,,2013-05-13 18:13:00,
2013-05-13 13:23:00,72.0,40.0,30.19,North,349,3.0,9.0,31,0.00,,,0.00,,2013-05-13 18:23:00,
2013-05-13 13:32:00,72.0,40.0,30.19,ESE,121,2.0,9.0,31,0.00,,,0.00,,2013-05-13 18:32:00,
2013-05-13 13:42:00,73.0,40.0,30.19,SE,137,1.0,6.0,30,0.00,,,0.00,,2013-05-13 18:42:00,
2013-05-13 13:52:00,73.0,40.0,30.19,SE,137,1.0,6.0,30,0.00,,,0.00,,2013-05-13 18:52:00,
2013-05-13 14:01:00,73.0,41.0,30.18,NNE,26,3.0,7.0,32,0.00,,,0.00,,2013-05-13 19:01:00,
2013-05-13 14:11:00,73.0,41.0,30.18,NNE,26,3.0,7.0,32,0.00,,,0.00,,2013-05-13 19:11:00,
2013-05-13 14:22:00,74.0,41.0,30.17,South,179,1.0,7.0,30,0.00,,,0.00,,2013-05-13 19:22:00,
2013-05-13 14:32:00,74.0,40.0,30.17,SW,234,2.0,7.0,29,0.00,,,0.00,,2013-05-13 19:32:00,
2013-05-13 14:44:00,74.0,39.0,30.16,West,266,2.0,6.0,28,0.00,,,0.00,,2013-05-13 19:44:00,
2013-05-13 14:53:00,74.0,39.0,30.16,West,266,2.0,6.0,28,0.00,,,0.00,,2013-05-13 19:53:00,
2013-05-13 15:02:00,75.0,42.0,30.15,ENE,65,2.0,7.0,31,0.00,,,0.00,,2013-05-13 20:02:00,
2013-05-13 15:11:00,75.0,42.0,30.15,ENE,65,2.0,7.0,31,0.00,,,0.00,,2013-05-13 20:11:00,
2013-05-13 15:23:00,75.0,41.0,30.15,SE,125,1.0,11.0,30,0.00,,,0.00,,2013-05-13 20:23:00,
2013-05-13 15:34:00,75.0,40.0,30.14,SSE,159,2.0,6.0,28,0.00,,,0.00,,2013-05-13 20:34:00,
2013-05-13 15:44:00,75.0,40.0,30.14,SSE,159,2.0,6.0,28,0.00,,,0.00,,2013-05-13 20:44:00,
2013-05-13 15:53:00,75.0,40.0,30.14,South,179,3.0,11.0,28,0.00,,,0.00,,2013-05-13 20:53:00,
2013-05-13 16:03:00,76.0,42.0,30.14,South,177,2.0,5.0,30,0.00,,,0.00,,2013-05-13 21:03:00,
2013-05-13 16:14:00,76.0,42.0,30.14,South,177,2.0,5.0,30,0.00,,,0.00,,2013-05-13 21:14:00,
2013-05-13 16:23:00,76.0,41.0,30.14,East,89,2.0,6.0,29,0.00,,,0.00,,2013-05-13 21:23:00,
2013-05-13 16:33:00,75.0,42.0,30.14,WSW,250,1.0,7.0,31,0.00,,,0.00,,2013-05-13 21:33:00,
2013-05-13 16:43:00,75.0,42.0,30.14,WSW,250,1.0,7.0,31,0.00,,,0.00,,2013-05-13 21:43:00,
2013-05-13 16:53:00,75.0,42.0,30.14,WSW,250,2.0,5.0,31,0.00,,,0.00,,2013-05-13 21:53:00,
2013-05-13 17:02:00,76.0,44.0,30.13,ENE,68,2.0,6.0,32,0.00,,,0.00,,2013-05-13 22:02:00,
2013-05-13 17:12:00,76.0,44.0,30.13,ENE,68,2.0,6.0,32,0.00,,,0.00,,2013-05-13 22:12:00,
2013-05-13 17:23:00,75.0,43.0,30.13,SSW,198,2.0,5.0,32,0.00,,,0.00,,2013-05-13 22:23:00,
2013-05-13 17:32:00,73.0,43.0,30.13,WSW,238,0.0,8.0,34,0.00,,,0.00,,2013-05-13 22:32:00,
2013-05-13 17:43:00,73.0,44.0,30.13,SE,133,0.0,5.0,35,0.00,,,0.00,,2013-05-13 22:43:00,
2013-05-13 17:52:00,73.0,44.0,30.13,SE,133,0.0,5.0,35,0.00,,,0.00,,2013-05-13 22:52:00,
2013-05-13 18:02:00,73.0,44.0,30.13,SE,133,0.0,5.0,35,0.00,,,0.00,,2013-05-13 23:02:00,
2013-05-13 18:13:00,73.0,44.0,30.13,SE,133,0.0,5.0,35,0.00,,,0.00,,2013-05-13 23:13:00,
2013-05-13 18:23:00,72.0,44.0,30.13,WNW,283,1.0,4.0,37,0.00,,,0.00,,2013-05-13 23:23:00,
2013-05-13 18:34:00,71.0,45.0,30.13,West,280,0.0,3.0,39,0.00,,,0.00,,2013-05-13 23:34:00,
2013-05-13 18:42:00,71.0,45.0,30.13,West,280,0.0,3.0,39,0.00,,,0.00,,2013-05-13 23:42:00,
2013-05-13 18:54:00,70.0,44.0,30.13,SW,215,0.0,3.0,39,0.00,,,0.00,,2013-05-13 23:54:00,
2013-05-13 19:02:00,69.0,46.0,30.13,West,278,0.0,2.0,43,0.00,,,0.00,,2013-05-14 00:02:00,
2013-05-13 19:13:00,69.0,46.0,30.13,West,278,0.0,2.0,43,0.00,,,0.00,,2013-05-14 00:13:00,
2013-05-13 19:22:00,68.0,47.0,30.14,West,269,0.0,0.0,47,0.00,,,0.00,,2013-05-14 00:22:00,
2013-05-13 19:32:00,65.0,46.0,30.14,West,269,0.0,0.0,51,0.00,,,0.00,,2013-05-14 00:32:00,
2013-05-13 19:42:00,65.0,46.0,30.14,West,269,0.0,0.0,51,0.00,,,0.00,,2013-05-14 00:42:00,
2013-05-13 19:51:00,63.0,47.0,30.14,West,269,0.0,0.0,55,0.00,,,0.00,,2013-05-14 00:51:00,
2013-05-13 20:02:00,62.0,47.0,30.14,West,268,0.0,0.0,58,0.00,,,0.00,,2013-05-14 01:02:00,
2013-05-13 20:11:00,62.0,47.0,30.14,West,268,0.0,0.0,58,0.00,,,0.00,,2013-05-14 01:11:00,
2013-05-13 20:21:00,61.0,47.0,30.14,West,268,0.0,0.0,60,0.00,,,0.00,,2013-05-14 01:21:00,
2013-05-13 20:32:00,59.0,46.0,30.14,West,269,0.0,0.0,62,0.00,,,0.00,,2013-05-14 01:32:00,
2013-05-13 20:43:00,59.0,46.0,30.14,West,269,0.0,0.0,62,0.00,,,0.00,,2013-05-14 01:43:00,
2013-05-13 20:53:00,58.0,46.0,30.14,West,269,0.0,0.0,65,0.00,,,0.00,,2013-05-14 01:53:00,
2013-05-13 21:02:00,58.0,47.0,30.15,West,268,0.0,0.0,68,0.00,,,0.00,,2013-05-14 02:02:00,
2013-05-13 21:12:00,57.0,47.0,30.15,West,269,0.0,0.0,69,0.00,,,0.00,,2013-05-14 02:12:00,
2013-05-13 21:22:00,57.0,47.0,30.15,West,269,0.0,0.0,69,0.00,,,0.00,,2013-05-14 02:22:00,
2013-05-13 21:32:00,56.0,46.0,30.16,West,269,0.0,0.0,70,0.00,,,0.00,,2013-05-14 02:32:00,
2013-05-13 21:42:00,56.0,46.0,30.16,West,269,0.0,0.0,70,0.00,,,0.00,,2013-05-14 02:42:00,
2013-05-13 21:52:00,56.0,47.0,30.16,West,269,0.0,0.0,71,0.00,,,0.00,,2013-05-14 02:52:00,
2013-05-13 22:01:00,55.0,47.0,30.16,West,269,0.0,0.0,73,0.00,,,0.00,,2013-05-14 03:01:00,
2013-05-13 22:11:00,55.0,47.0,30.16,West,269,0.0,0.0,73,0.00,,,0.00,,2013-05-14 03:11:00,
2013-05-13 22:21:00,55.0,47.0,30.16,West,269,0.0,0.0,73,0.00,,,0.00,,2013-05-14 03:21:00,
2013-05-13 22:33:00,55.0,47.0,30.17,West,269,0.0,0.0,74,0.00,,,0.00,,2013-05-14 03:33:00,
2013-05-13 22:42:00,55.0,47.0,30.17,West,269,0.0,0.0,74,0.00,,,0.00,,2013-05-14 03:42:00,
2013-05-13 22:52:00,54.0,46.0,30.16,West,269,0.0,0.0,75,0.00,,,0.00,,2013-05-14 03:52:00,
2013-05-13 23:03:00,54.0,46.0,30.16,West,269,0.0,0.0,74,0.00,,,0.00,,2013-05-14 04:03:00,
2013-05-13 23:13:00,54.0,46.0,30.16,West,269,0.0,0.0,74,0.00,,,0.00,,2013-05-14 04:13:00,
2013-05-13 23:23:00,54.0,47.0,30.16,West,269,0.0,0.0,76,0.00,,,0.00,,2013-05-14 04:23:00,
2013-05-13 23:32:00,54.0,47.0,30.16,West,269,0.0,0.0,78,0.00,,,0.00,,2013-05-14 04:32:00,
2013-05-13 23:43:00,54.0,47.0,30.16,West,269,0.0,0.0,78,0.00,,,0.00,,2013-05-14 04:43:00,
2013-05-13 23:52:00,54.0,47.0,30.16,West,269,0.0,0.0,78,0.00,,,0.00,,2013-05-14 04:52:00,